Time;durP1;ratioP1;P1;durP2;ratioP2;P2;SDS_P1;SDS_P2;PMS_P1;PMS_P2;Temp;Humidity;BMP_temperature;BMP_pressure;BME280_temperature;BME280_humidity;BME280_pressure;Samples;Min_cycle;Max_cycle;Signal;HPM_P1;HPM_P2
2022/07/21 00:00:52;;;;;;;15.02;13.43;;;18.50;99.90;;;;;;5092460;28;20048;-60
2022/07/21 00:03:19;;;;;;;18.95;14.10;;;18.50;99.90;;;;;;5091737;28;20051;-61
2022/07/21 00:05:46;;;;;;;15.73;13.13;;;18.50;99.90;;;;;;5091766;28;20040;-60
2022/07/21 00:08:13;;;;;;;18.40;14.13;;;18.50;99.90;;;;;;5090071;28;20112;-58
2022/07/21 00:10:40;;;;;;;16.55;14.25;;;18.50;99.90;;;;;;5074757;28;20059;-59
2022/07/21 00:13:07;;;;;;;17.48;14.10;;;18.60;99.90;;;;;;5087640;28;20072;-58
2022/07/21 00:15:34;;;;;;;14.30;12.90;;;18.50;99.90;;;;;;5058350;28;20500;-59
2022/07/21 00:18:01;;;;;;;16.17;13.02;;;18.40;99.90;;;;;;5076667;28;20047;-61
2022/07/21 00:20:30;;;;;;;13.85;12.50;;;18.40;99.90;;;;;;5076137;28;20043;-62
2022/07/21 00:22:57;;;;;;;15.88;14.27;;;18.40;99.90;;;;;;5075195;28;20050;-59
2022/07/21 00:25:24;;;;;;;14.43;12.93;;;18.30;99.90;;;;;;5075213;28;20470;-60
2022/07/21 00:27:59;;;;;;;15.25;12.98;;;18.30;99.90;;;;;;5076542;28;20928;-60
2022/07/21 00:30:26;;;;;;;14.23;12.70;;;18.30;99.90;;;;;;5075679;28;20051;-57
2022/07/21 00:32:53;;;;;;;15.77;13.63;;;18.30;99.90;;;;;;5076096;28;20047;-60
2022/07/21 00:35:21;;;;;;;16.23;13.80;;;18.30;99.90;;;;;;5076187;28;20044;-58
2022/07/21 00:37:48;;;;;;;13.73;12.32;;;18.30;99.90;;;;;;5075610;28;20036;-59
2022/07/21 00:40:15;;;;;;;;;;;18.20;99.90;;;;;;5076787;28;20062;-58
2022/07/21 00:42:42;;;;;;;15.60;14.02;;;18.20;99.90;;;;;;5075578;28;20409;-58
2022/07/21 00:45:11;;;;;;;18.10;14.50;;;18.20;99.90;;;;;;5076085;28;20072;-59
2022/07/21 00:47:38;;;;;;;14.65;13.07;;;18.30;99.90;;;;;;5075502;28;20032;-59
2022/07/21 00:50:09;;;;;;;15.18;13.05;;;18.30;99.90;;;;;;5058075;28;20102;-59
2022/07/21 00:52:36;;;;;;;15.25;13.52;;;18.40;99.90;;;;;;5092019;28;20043;-61
2022/07/21 00:55:04;;;;;;;13.65;11.77;;;18.40;99.90;;;;;;5095311;28;20039;-56
2022/07/21 00:57:32;;;;;;;14.75;13.15;;;18.40;99.90;;;;;;5095948;28;20043;-59
2022/07/21 00:59:59;;;;;;;15.20;13.60;;;18.40;99.90;;;;;;5065911;28;20048;-59
2022/07/21 01:02:28;;;;;;;18.10;13.95;;;18.40;99.90;;;;;;5076042;28;20039;-59
2022/07/21 01:04:54;;;;;;;18.90;13.77;;;18.30;99.90;;;;;;5074868;28;20133;-60
2022/07/21 01:07:21;;;;;;;15.65;13.43;;;18.30;99.90;;;;;;5084416;28;20091;-59
2022/07/21 01:09:49;;;;;;;14.57;12.80;;;18.20;99.90;;;;;;5076701;28;20043;-61
2022/07/21 01:12:16;;;;;;;18.02;15.13;;;18.20;99.90;;;;;;5082063;28;20051;-61
2022/07/21 01:14:43;;;;;;;16.20;13.80;;;18.20;99.90;;;;;;5074245;28;20044;-61
2022/07/21 01:17:10;;;;;;;16.05;14.25;;;18.20;99.90;;;;;;5074903;28;20040;-58
2022/07/21 01:19:37;;;;;;;18.30;15.27;;;18.20;99.90;;;;;;5075484;28;20040;-59
2022/07/21 01:22:05;;;;;;;17.20;13.20;;;18.10;99.90;;;;;;5088623;28;20039;-59
2022/07/21 01:24:32;;;;;;;16.52;14.82;;;18.10;99.90;;;;;;5094161;28;20048;-60
2022/07/21 01:26:58;;;;;;;19.63;13.55;;;18.10;99.90;;;;;;5094923;28;20051;-58
2022/07/21 01:29:25;;;;;;;16.92;13.18;;;18.10;99.90;;;;;;5094146;28;20047;-59
2022/07/21 01:31:52;;;;;;;18.33;15.45;;;18.10;99.90;;;;;;5093276;28;20113;-58
2022/07/21 01:34:19;;;;;;;;;;;18.10;99.90;;;;;;5096080;28;20047;-56
2022/07/21 01:36:46;;;;;;;17.65;15.75;;;18.10;99.90;;;;;;5095402;28;19928;-60
2022/07/21 01:41:59;;;;;;;25.48;16.88;;;18.10;99.90;;;;;;5095712;28;20825;-58
2022/07/21 01:44:26;;;;;;;18.35;15.43;;;18.10;99.90;;;;;;5094312;28;20388;-59
2022/07/21 01:46:53;;;;;;;;;;;18.10;99.90;;;;;;5095745;28;20067;-58
2022/07/21 01:49:21;;;;;;;22.52;15.65;;;18.10;99.90;;;;;;5094867;28;19923;-62
2022/07/21 01:51:48;;;;;;;19.40;15.27;;;18.10;99.90;;;;;;5094392;28;20047;-59
2022/07/21 01:54:15;;;;;;;18.58;15.00;;;18.10;99.90;;;;;;5092417;28;20047;-60
2022/07/21 01:56:49;;;;;;;16.10;14.45;;;18.10;99.90;;;;;;5094759;28;20051;-59
2022/07/21 01:59:16;;;;;;;18.67;16.67;;;18.20;99.90;;;;;;5089047;28;20069;-59
2022/07/21 02:01:43;;;;;;;17.08;15.25;;;18.20;99.90;;;;;;5074165;28;20044;-59
2022/07/21 02:04:10;;;;;;;17.15;15.40;;;18.20;99.90;;;;;;5073087;28;20419;-59
2022/07/21 02:06:38;;;;;;;15.25;13.65;;;18.20;99.90;;;;;;5078654;28;20919;-58
2022/07/21 02:09:06;;;;;;;16.75;15.05;;;18.20;99.90;;;;;;5094596;28;20048;-60
2022/07/21 02:11:33;;;;;;;18.25;16.20;;;18.20;99.90;;;;;;5086258;28;20054;-59
2022/07/21 02:14:01;;;;;;;17.92;13.95;;;18.20;99.90;;;;;;5073793;28;20517;-56
2022/07/21 02:16:28;;;;;;;17.75;13.88;;;18.30;99.90;;;;;;5073775;28;20051;-60
2022/07/21 02:18:55;;;;;;;17.55;13.52;;;18.30;99.90;;;;;;5073714;28;20040;-58
2022/07/21 02:21:22;;;;;;;17.35;15.55;;;18.40;99.90;;;;;;5077001;28;20109;-58
2022/07/21 02:23:49;;;;;;;15.65;14.10;;;18.40;99.90;;;;;;5093954;28;20045;-59
2022/07/21 02:26:16;;;;;;;22.58;16.10;;;18.40;99.90;;;;;;5094424;28;20109;-58
2022/07/21 02:28:43;;;;;;;16.10;14.40;;;18.40;99.90;;;;;;5094384;28;20044;-57
2022/07/21 02:31:10;;;;;;;20.45;15.07;;;18.40;99.90;;;;;;5094327;28;20093;-59
2022/07/21 02:33:36;;;;;;;15.93;14.32;;;18.40;99.90;;;;;;5093694;28;20054;-58
2022/07/21 02:36:04;;;;;;;19.60;15.75;;;18.40;99.90;;;;;;5094032;28;20048;-60
2022/07/21 02:38:30;;;;;;;21.90;16.92;;;18.40;99.90;;;;;;5093757;28;20055;-60
2022/07/21 02:40:57;;;;;;;18.83;16.23;;;18.40;99.90;;;;;;5075754;28;20051;-57
2022/07/21 02:43:24;;;;;;;20.88;16.27;;;18.40;99.90;;;;;;5093865;28;20043;-59
2022/07/21 02:45:51;;;;;;;19.80;16.15;;;18.40;99.90;;;;;;5093241;28;20047;-58
2022/07/21 02:48:18;;;;;;;17.05;15.25;;;18.40;99.90;;;;;;5094291;28;20050;-60
2022/07/21 02:50:45;;;;;;;21.60;16.80;;;18.40;99.90;;;;;;5093048;28;20217;-58
2022/07/21 02:53:17;;;;;;;18.90;16.77;;;18.30;99.90;;;;;;5092491;28;20077;-60
2022/07/21 02:55:46;;;;;;;21.45;17.83;;;18.30;99.90;;;;;;5089940;28;20044;-61
2022/07/21 02:58:12;;;;;;;18.00;16.15;;;18.30;99.90;;;;;;5075598;28;20544;-58
2022/07/21 03:00:42;;;;;;;17.73;15.85;;;18.30;99.90;;;;;;5094378;28;20047;-60
2022/07/21 03:03:09;;;;;;;16.40;14.70;;;18.30;99.90;;;;;;5093604;28;20036;-58
2022/07/21 03:05:37;;;;;;;19.95;17.20;;;18.40;99.90;;;;;;5091895;28;20093;-59
2022/07/21 03:08:04;;;;;;;20.08;15.10;;;18.40;99.90;;;;;;5076423;28;20573;-57
2022/07/21 03:10:32;;;;;;;18.88;16.17;;;18.40;99.90;;;;;;5090405;28;20051;-60
2022/07/21 03:12:59;;;;;;;21.77;16.70;;;18.40;99.90;;;;;;5073756;28;20052;-57
2022/07/21 03:15:26;;;;;;;17.90;16.08;;;18.50;99.90;;;;;;5074059;28;20260;-59
2022/07/21 03:17:53;;;;;;;22.17;17.05;;;18.50;99.90;;;;;;5074309;28;20779;-58
2022/07/21 03:20:29;;;;;;;17.52;15.18;;;18.60;99.90;;;;;;5055605;28;20058;-59
2022/07/21 03:22:56;;;;;;;18.35;15.77;;;18.60;99.90;;;;;;5080897;28;20134;-60
2022/07/21 03:25:23;;;;;;;17.60;15.80;;;18.60;99.90;;;;;;5094236;28;20040;-56
2022/07/21 03:27:51;;;;;;;15.88;14.23;;;18.70;99.90;;;;;;5094710;28;20043;-59
2022/07/21 03:30:19;;;;;;;18.75;16.85;;;18.70;99.90;;;;;;5092705;28;20474;-58
2022/07/21 03:32:46;;;;;;;16.75;14.88;;;18.70;99.90;;;;;;5094781;28;20039;-59
2022/07/21 03:35:13;;;;;;;19.70;17.60;;;18.70;99.90;;;;;;5093955;28;20120;-56
2022/07/21 03:37:43;;;;;;;21.98;19.33;;;18.60;99.90;;;;;;5094799;28;20039;-56
2022/07/21 03:40:12;;;;;;;20.10;17.95;;;18.60;99.90;;;;;;5094335;28;20051;-61
2022/07/21 03:42:40;;;;;;;22.27;19.05;;;18.50;99.90;;;;;;5094681;28;20036;-61
2022/07/21 03:45:08;;;;;;;21.63;17.70;;;18.50;99.90;;;;;;5094125;28;20084;-60
2022/07/21 03:47:35;;;;;;;22.98;18.33;;;18.50;99.90;;;;;;5094263;28;20051;-61
2022/07/21 03:50:03;;;;;;;24.65;18.65;;;18.50;99.90;;;;;;5099081;28;20043;-60
2022/07/21 03:52:30;;;;;;;22.58;18.13;;;18.50;99.90;;;;;;5098579;28;20048;-61
2022/07/21 03:55:07;;;;;;;20.67;17.95;;;18.50;99.90;;;;;;5078180;28;20039;-59
2022/07/21 03:57:44;;;;;;;20.08;16.90;;;18.50;99.90;;;;;;5097493;28;20511;-61
2022/07/21 04:00:14;;;;;;;24.98;21.02;;;18.50;99.90;;;;;;5079498;28;20039;-59
2022/07/21 04:02:42;;;;;;;20.23;16.00;;;18.50;99.90;;;;;;5079530;28;20043;-62
2022/07/21 04:05:11;;;;;;;23.65;18.15;;;18.50;99.90;;;;;;5098202;28;20686;-59
2022/07/21 04:07:43;;;;;;;18.30;16.40;;;18.50;99.90;;;;;;5094539;28;20040;-59
2022/07/21 04:10:12;;;;;;;21.50;17.38;;;18.50;99.90;;;;;;5085820;28;20048;-60
2022/07/21 04:12:39;;;;;;;24.73;17.63;;;18.50;99.90;;;;;;5093522;28;20112;-60
2022/07/21 04:15:08;;;;;;;18.50;16.52;;;18.40;99.90;;;;;;5076919;28;20040;-59
2022/07/21 04:17:35;;;;;;;20.95;18.70;;;18.40;99.90;;;;;;5078085;28;20048;-61
2022/07/21 04:20:03;;;;;;;25.48;18.10;;;18.50;99.90;;;;;;5077542;28;20040;-60
2022/07/21 04:22:31;;;;;;;19.85;17.67;;;18.50;99.90;;;;;;5078105;28;20046;-53
2022/07/21 04:24:59;;;;;;;20.20;17.80;;;18.50;99.90;;;;;;5076208;28;20668;-51
2022/07/21 04:27:27;;;;;;;19.95;17.05;;;18.50;99.90;;;;;;5077754;28;20048;-53
2022/07/21 04:29:54;;;;;;;21.63;19.10;;;18.50;99.90;;;;;;5059232;28;20052;-51
2022/07/21 04:32:21;;;;;;;21.23;17.52;;;18.50;99.90;;;;;;5077279;28;20048;-53
2022/07/21 04:34:48;;;;;;;19.15;17.13;;;18.50;99.90;;;;;;5076101;28;20128;-54
2022/07/21 04:37:15;;;;;;;19.85;17.60;;;18.50;99.90;;;;;;5058110;28;20121;-55
2022/07/21 04:39:41;;;;;;;20.70;17.08;;;18.50;99.90;;;;;;5077312;28;20040;-54
2022/07/21 04:42:08;;;;;;;19.58;16.38;;;18.60;99.90;;;;;;5075434;28;20044;-53
2022/07/21 04:44:35;;;;;;;19.55;17.45;;;18.60;99.90;;;;;;5077453;28;20048;-53
2022/07/21 04:47:02;;;;;;;17.77;15.77;;;18.60;99.90;;;;;;5077020;28;20044;-54
2022/07/21 04:49:29;;;;;;;21.13;16.83;;;18.60;99.90;;;;;;5078150;28;20469;-54
2022/07/21 04:51:56;;;;;;;21.02;17.02;;;18.60;99.90;;;;;;5077046;28;20075;-53
2022/07/21 04:54:30;;;;;;;17.73;15.70;;;18.60;99.90;;;;;;5078081;28;20052;-54
2022/07/21 04:56:59;;;;;;;20.13;16.80;;;18.70;99.90;;;;;;5094839;28;20046;-52
2022/07/21 04:59:25;;;;;;;19.08;17.05;;;18.70;99.90;;;;;;5096751;28;20043;-52
2022/07/21 05:01:52;;;;;;;21.88;17.17;;;18.70;99.90;;;;;;5097271;28;20069;-51
2022/07/21 05:04:19;;;;;;;20.02;17.23;;;18.70;99.90;;;;;;5096648;28;20040;-54
2022/07/21 05:06:46;;;;;;;21.15;18.35;;;18.80;99.90;;;;;;5093609;28;20639;-56
2022/07/21 05:09:13;;;;;;;;;;;18.80;99.90;;;;;;5093406;28;20052;-54
2022/07/21 05:11:40;;;;;;;21.77;18.88;;;18.70;99.90;;;;;;5085712;28;20083;-53
2022/07/21 05:14:07;;;;;;;;;;;18.70;99.90;;;;;;5083225;28;20519;-54
2022/07/21 05:16:41;;;;;;;23.05;17.60;;;18.70;99.90;;;;;;5075688;28;20604;-52
2022/07/21 05:19:07;;;;;;;21.48;18.13;;;18.60;99.90;;;;;;5076677;28;20051;-53
2022/07/21 05:21:35;;;;;;;21.38;18.00;;;18.70;99.90;;;;;;5075640;28;20740;-52
2022/07/21 05:24:02;;;;;;;21.27;18.40;;;18.70;99.90;;;;;;5057579;28;20557;-53
2022/07/21 05:26:29;;;;;;;22.80;18.77;;;18.70;99.90;;;;;;5057439;28;20044;-52
2022/07/21 05:28:56;;;;;;;18.10;16.30;;;18.70;99.90;;;;;;5074965;28;20143;-52
2022/07/21 05:31:23;;;;;;;31.67;18.67;;;18.70;99.90;;;;;;5075329;28;20052;-53
2022/07/21 05:33:50;;;;;;;23.50;18.33;;;18.70;99.90;;;;;;5075830;28;20044;-52
2022/07/21 05:36:18;;;;;;;;;;;18.70;99.90;;;;;;5076373;28;20044;-52
2022/07/21 05:38:46;;;;;;;20.90;17.08;;;18.70;99.90;;;;;;5075562;28;19931;-53
2022/07/21 05:41:13;;;;;;;17.42;15.57;;;18.70;99.90;;;;;;5076557;28;20101;-50
2022/07/21 05:43:39;;;;;;;25.20;16.60;;;18.80;99.90;;;;;;5083940;28;20036;-53
2022/07/21 05:46:06;;;;;;;20.63;17.30;;;18.80;99.90;;;;;;5095982;28;20050;-53
2022/07/21 05:48:33;;;;;;;24.50;19.45;;;18.80;99.90;;;;;;5095964;28;20051;-53
2022/07/21 05:51:00;;;;;;;17.08;15.27;;;18.90;99.90;;;;;;5096247;28;20051;-52
2022/07/21 05:53:27;;;;;;;20.17;16.48;;;19.00;99.90;;;;;;5095770;28;20453;-52
2022/07/21 05:55:54;;;;;;;18.90;16.35;;;19.00;99.90;;;;;;5094834;28;20058;-51
2022/07/21 05:58:24;;;;;;;19.63;16.42;;;19.10;99.90;;;;;;5075296;28;20048;-53
2022/07/21 06:01:09;;;;;;;19.13;17.17;;;19.20;99.90;;;;;;5076587;28;20044;-54
2022/07/21 06:03:42;;;;;;;24.23;18.02;;;19.20;99.90;;;;;;5059626;28;20070;-53
2022/07/21 06:06:10;;;;;;;17.52;15.68;;;19.40;99.90;;;;;;5077276;28;20040;-54
2022/07/21 06:08:39;;;;;;;18.15;14.50;;;19.40;99.90;;;;;;5095910;28;20079;-53
2022/07/21 06:11:09;;;;;;;20.15;16.83;;;19.50;99.90;;;;;;5078149;28;20419;-54
2022/07/21 06:13:37;;;;;;;23.33;16.17;;;19.50;99.90;;;;;;5086148;28;20043;-52
2022/07/21 06:16:04;;;;;;;17.88;15.07;;;19.60;99.90;;;;;;5074923;28;20052;-53
2022/07/21 06:18:32;;;;;;;18.48;15.25;;;19.70;99.90;;;;;;5057345;28;20044;-53
2022/07/21 06:20:59;;;;;;;19.08;15.60;;;19.70;99.90;;;;;;5073660;28;20071;-52
2022/07/21 06:23:26;;;;;;;16.17;14.55;;;19.80;99.90;;;;;;5074398;28;20032;-53
2022/07/21 06:25:54;;;;;;;19.73;15.77;;;19.80;99.90;;;;;;5074987;28;20048;-53
2022/07/21 06:28:21;;;;;;;22.42;15.90;;;19.90;99.90;;;;;;5075188;28;20048;-53
2022/07/21 06:30:49;;;;;;;23.23;16.27;;;19.90;99.90;;;;;;5075345;28;20044;-53
2022/07/21 06:33:16;;;;;;;18.05;15.63;;;20.00;99.90;;;;;;5074890;28;20794;-53
2022/07/21 06:35:42;;;;;;;18.83;14.80;;;20.00;99.90;;;;;;5075179;28;20055;-52
2022/07/21 06:38:09;;;;;;;19.90;16.75;;;20.00;99.90;;;;;;5073736;28;20121;-54
2022/07/21 06:40:40;;;;;;;20.00;15.07;;;20.00;99.90;;;;;;5075437;28;20040;-53
2022/07/21 06:43:09;;;;;;;21.55;16.45;;;20.00;99.90;;;;;;5074619;28;20044;-53
2022/07/21 06:45:56;;;;;;;24.40;17.25;;;20.00;99.90;;;;;;5075344;28;20050;-54
2022/07/21 06:48:24;;;;;;;26.17;15.60;;;20.00;99.90;;;;;;5075182;28;20124;-49
2022/07/21 06:50:52;;;;;;;17.08;14.60;;;20.00;99.90;;;;;;5074229;28;20156;-52
2022/07/21 06:53:19;;;;;;;19.23;14.27;;;20.00;99.90;;;;;;5074740;28;20055;-52
2022/07/21 06:55:46;;;;;;;18.05;15.15;;;20.00;99.90;;;;;;5074254;28;20052;-50
2022/07/21 06:58:20;;;;;;;19.40;13.70;;;20.00;99.90;;;;;;5089205;28;20101;-50
2022/07/21 07:00:48;;;;;;;16.23;14.23;;;20.00;99.90;;;;;;5093997;28;20032;-51
2022/07/21 07:03:16;;;;;;;17.02;14.02;;;20.00;99.90;;;;;;5094837;28;20046;-51
2022/07/21 07:05:47;;;;;;;16.45;13.52;;;20.00;99.90;;;;;;5093590;28;20051;-52
2022/07/21 07:08:14;;;;;;;17.02;14.38;;;20.10;99.90;;;;;;5093012;28;20035;-53
2022/07/21 07:10:42;;;;;;;21.45;14.60;;;20.10;99.90;;;;;;5078282;28;20051;-49
2022/07/21 07:13:10;;;;;;;20.98;13.75;;;20.10;99.90;;;;;;5088580;28;20047;-51
2022/07/21 07:15:57;;;;;;;19.52;13.55;;;20.00;99.90;;;;;;5073073;28;20044;-50
2022/07/21 07:18:25;;;;;;;21.88;13.05;;;20.00;99.90;;;;;;5074334;28;20056;-51
2022/07/21 07:20:52;;;;;;;24.58;14.05;;;20.00;99.90;;;;;;5074579;28;20050;-51
2022/07/21 07:23:19;;;;;;;22.55;13.55;;;20.00;99.90;;;;;;5072993;28;20459;-49
2022/07/21 07:25:46;;;;;;;18.80;12.57;;;20.00;99.90;;;;;;5069737;28;20040;-50
2022/07/21 07:28:13;;;;;;;19.80;12.48;;;20.00;99.90;;;;;;5094378;28;20042;-49
2022/07/21 07:30:39;;;;;;;16.83;13.00;;;19.90;99.90;;;;;;5094817;28;20047;-52
2022/07/21 07:33:07;;;;;;;17.42;12.27;;;19.90;99.90;;;;;;5094289;28;20648;-51
2022/07/21 07:35:33;;;;;;;19.98;12.95;;;19.90;99.90;;;;;;5092732;28;20069;-49
2022/07/21 07:38:01;;;;;;;16.17;12.95;;;20.00;99.90;;;;;;5095142;28;20736;-52
2022/07/21 07:40:28;;;;;;;16.70;12.95;;;19.90;99.90;;;;;;5094126;28;20055;-49
2022/07/21 07:42:55;;;;;;;16.15;13.40;;;19.90;99.90;;;;;;5094212;28;20054;-60
2022/07/21 07:45:22;;;;;;;17.23;12.50;;;20.00;99.90;;;;;;5094028;28;20050;-51
2022/07/21 07:47:49;;;;;;;17.83;13.43;;;19.90;99.90;;;;;;5092599;28;20031;-54
2022/07/21 07:50:16;;;;;;;18.00;12.93;;;20.00;99.90;;;;;;5094128;28;20114;-51
2022/07/21 07:52:44;;;;;;;15.02;11.95;;;20.00;99.90;;;;;;5093429;28;20040;-53
2022/07/21 07:55:12;;;;;;;16.63;13.43;;;20.00;99.90;;;;;;5094175;28;20096;-55
2022/07/21 07:57:40;;;;;;;18.42;13.27;;;20.00;99.90;;;;;;5093501;28;20415;-55
2022/07/21 08:00:11;;;;;;;15.05;12.10;;;20.10;99.90;;;;;;5090473;28;20039;-55
2022/07/21 08:02:57;;;;;;;16.60;12.80;;;20.10;99.90;;;;;;5078341;28;20128;-49
2022/07/21 08:05:24;;;;;;;15.88;12.38;;;20.10;99.90;;;;;;5093996;28;20048;-52
2022/07/21 08:07:51;;;;;;;15.82;11.65;;;20.10;99.90;;;;;;5075420;28;20572;-54
2022/07/21 08:10:18;;;;;;;19.13;13.02;;;20.10;99.90;;;;;;5087237;28;20503;-54
2022/07/21 08:13:04;;;;;;;17.70;13.93;;;20.10;99.90;;;;;;5077491;28;20097;-56
2022/07/21 08:15:33;;;;;;;17.15;12.98;;;20.10;99.90;;;;;;5093901;28;20704;-50
2022/07/21 08:18:01;;;;;;;17.80;12.48;;;20.10;99.90;;;;;;5094486;28;20043;-51
2022/07/21 08:20:28;;;;;;;17.63;11.63;;;20.10;99.90;;;;;;5092628;28;20100;-52
2022/07/21 08:22:55;;;;;;;15.02;11.85;;;20.10;99.90;;;;;;5093907;28;20062;-50
2022/07/21 08:25:22;;;;;;;15.63;11.55;;;20.10;99.90;;;;;;5092302;28;20128;-50
2022/07/21 08:27:49;;;;;;;20.17;12.50;;;20.20;99.90;;;;;;5094716;28;20100;-52
2022/07/21 08:30:16;;;;;;;15.65;12.60;;;20.10;99.90;;;;;;5074874;28;20051;-53
2022/07/21 08:32:42;;;;;;;19.85;12.57;;;20.20;99.90;;;;;;5094373;28;20054;-50
2022/07/21 08:35:10;;;;;;;18.65;13.35;;;20.20;99.90;;;;;;5096265;28;20063;-52
2022/07/21 08:37:38;;;;;;;16.10;12.93;;;20.20;99.90;;;;;;5078445;28;20718;-52
2022/07/21 08:40:08;;;;;;;19.48;13.13;;;20.20;99.90;;;;;;5097316;28;20047;-52
2022/07/21 08:42:35;;;;;;;16.67;13.13;;;20.20;99.90;;;;;;5097377;28;20431;-55
2022/07/21 08:45:04;;;;;;;16.65;13.68;;;20.20;99.90;;;;;;5079515;28;20048;-54
2022/07/21 08:47:31;;;;;;;21.20;14.15;;;20.20;99.90;;;;;;5097339;28;20052;-53
2022/07/21 08:50:00;;;;;;;18.17;14.73;;;20.20;99.90;;;;;;5097901;28;20067;-53
2022/07/21 08:52:27;;;;;;;14.77;11.60;;;20.10;99.90;;;;;;5096915;28;20574;-54
2022/07/21 08:54:56;;;;;;;17.58;12.23;;;20.10;99.90;;;;;;5095946;28;20043;-54
2022/07/21 08:57:23;;;;;;;20.67;14.35;;;20.10;99.90;;;;;;5096163;28;20049;-55
2022/07/21 08:59:49;;;;;;;20.65;13.75;;;20.10;99.90;;;;;;5096622;28;20073;-54
2022/07/21 09:02:46;;;;;;;17.42;13.20;;;20.10;99.90;;;;;;5097197;28;20047;-54
2022/07/21 09:05:12;;;;;;;18.27;13.77;;;20.10;99.90;;;;;;5080069;28;20047;-55
2022/07/21 09:08:00;;;;;;;18.42;13.68;;;20.10;99.90;;;;;;5093896;28;20685;-54
2022/07/21 09:10:29;;;;;;;13.88;12.40;;;20.10;99.90;;;;;;5081103;28;20149;-52
2022/07/21 09:12:59;;;;;;;16.00;12.93;;;20.10;99.90;;;;;;5091557;28;20802;-51
2022/07/21 09:15:27;;;;;;;15.68;12.40;;;20.10;99.90;;;;;;5057822;28;20044;-52
2022/07/21 09:18:15;;;;;;;17.52;12.65;;;20.20;99.90;;;;;;5076237;28;20066;-52
2022/07/21 09:20:52;;;;;;;17.60;12.63;;;20.20;99.90;;;;;;5076102;28;20055;-50
2022/07/21 09:23:21;;;;;;;;;;;20.20;99.90;;;;;;5076790;28;20082;-51
2022/07/21 09:25:49;;;;;;;18.02;12.50;;;20.30;99.90;;;;;;5074713;28;20375;-52
2022/07/21 09:28:19;;;;;;;17.52;12.02;;;20.30;99.90;;;;;;5096091;28;20118;-51
2022/07/21 09:31:06;;;;;;;16.13;12.80;;;20.30;99.90;;;;;;5096072;28;20502;-51
2022/07/21 09:33:42;;;;;;;22.35;14.50;;;20.30;99.90;;;;;;5096441;28;20055;-55
2022/07/21 09:36:12;;;;;;;22.80;15.02;;;20.30;99.90;;;;;;5095706;28;20058;-56
2022/07/21 09:38:57;;;;;;;17.60;14.15;;;20.40;99.90;;;;;;5096449;28;20051;-55
2022/07/21 09:41:26;;;;;;;19.40;13.02;;;20.50;99.90;;;;;;5096236;28;20890;-50
2022/07/21 09:43:55;;;;;;;21.65;14.95;;;20.50;99.90;;;;;;5094494;28;20762;-51
2022/07/21 09:46:25;;;;;;;19.85;13.43;;;20.60;99.90;;;;;;5095045;28;20048;-50
2022/07/21 09:48:54;;;;;;;20.38;13.63;;;20.70;99.90;;;;;;5096269;28;20126;-52
2022/07/21 09:51:43;;;;;;;14.43;12.75;;;20.70;99.90;;;;;;5096032;28;20127;-50
2022/07/21 09:54:11;;;;;;;21.33;14.35;;;20.90;99.90;;;;;;5095501;28;20048;-53
2022/07/21 09:56:43;;;;;;;23.65;14.88;;;21.00;99.90;;;;;;5077411;28;20513;-54
2022/07/21 09:59:12;;;;;;;19.75;15.30;;;21.10;99.90;;;;;;5094514;28;21159;-54
2022/07/21 10:01:39;;;;;;;18.88;14.30;;;21.20;99.90;;;;;;5093659;28;20422;-54
2022/07/21 10:04:06;;;;;;;16.95;14.00;;;21.30;99.90;;;;;;5076669;28;20145;-54
2022/07/21 10:06:38;;;;;;;19.88;15.98;;;21.40;99.90;;;;;;5067252;28;20648;-54
2022/07/21 10:09:09;;;;;;;16.77;13.15;;;21.50;99.90;;;;;;5078706;28;20546;-53
2022/07/21 10:11:43;;;;;;;17.13;13.85;;;21.60;99.90;;;;;;5094897;28;20543;-54
2022/07/21 10:14:11;;;;;;;19.38;15.48;;;21.70;99.90;;;;;;5081194;28;20101;-50
2022/07/21 10:16:38;;;;;;;16.52;13.32;;;22.00;99.90;;;;;;5074993;28;20123;-50
2022/07/21 10:19:54;;;;;;;18.75;13.15;;;22.10;99.90;;;;;;5075348;28;20040;-49
2022/07/21 10:22:53;;;;;;;14.98;12.60;;;22.20;99.90;;;;;;5023727;28;20066;-55
2022/07/21 10:25:22;;;;;;;19.63;14.57;;;22.50;99.90;;;;;;5074531;28;20040;-54
2022/07/21 10:28:10;;;;;;;25.98;13.15;;;22.80;99.90;;;;;;5075242;28;20119;-52
2022/07/21 10:30:38;;;;;;;15.65;12.52;;;23.10;99.90;;;;;;5079906;28;20047;-54
2022/07/21 10:33:05;;;;;;;14.00;12.05;;;23.20;99.90;;;;;;5094554;28;20535;-55
2022/07/21 10:35:33;;;;;;;18.13;11.82;;;23.50;99.90;;;;;;5095839;28;20040;-52
2022/07/21 10:38:02;;;;;;;17.65;12.02;;;23.70;99.90;;;;;;5094747;28;20047;-55
2022/07/21 10:40:29;;;;;;;14.18;11.52;;;23.90;99.90;;;;;;5077329;28;20043;-54
2022/07/21 10:42:59;;;;;;;19.30;12.68;;;24.10;99.90;;;;;;5094038;28;20140;-53
2022/07/21 10:45:33;;;;;;;15.63;11.98;;;24.20;99.90;;;;;;5095163;28;20054;-52
2022/07/21 10:48:03;;;;;;;13.25;10.73;;;24.40;99.90;;;;;;5094517;28;20040;-52
2022/07/21 10:50:31;;;;;;;14.63;12.13;;;24.50;99.90;;;;;;5095195;28;20043;-52
2022/07/21 10:53:00;;;;;;;17.02;13.30;;;24.60;99.90;;;;;;5076314;28;20044;-51
2022/07/21 10:55:30;;;;;;;14.88;11.77;;;24.60;99.90;;;;;;5094111;28;20105;-51
2022/07/21 10:58:20;;;;;;;21.08;14.25;;;24.60;99.90;;;;;;5094558;28;20047;-49
2022/07/21 11:00:54;;;;;;;16.38;11.10;;;24.70;99.90;;;;;;5079320;28;20458;-53
2022/07/21 11:03:35;;;;;;;16.27;11.93;;;24.80;99.90;;;;;;5094154;28;20047;-51
2022/07/21 11:06:22;;;;;;;19.85;12.88;;;25.20;99.90;;;;;;5075930;28;20139;-51
2022/07/21 11:09:04;;;;;;;16.30;13.23;;;25.60;99.90;;;;;;5076429;28;20789;-53
2022/07/21 11:11:33;;;;;;;16.70;11.88;;;26.00;99.90;;;;;;5087175;28;20176;-52
2022/07/21 11:14:08;;;;;;;18.50;12.70;;;26.20;99.90;;;;;;5073981;28;20040;-52
2022/07/21 11:16:52;;;;;;;17.23;12.50;;;26.50;99.90;;;;;;5074284;28;20111;-60
2022/07/21 11:19:46;;;;;;;15.02;12.30;;;26.70;99.90;;;;;;5072984;28;20044;-65
2022/07/21 11:22:20;;;;;;;14.43;11.95;;;26.90;99.90;;;;;;5074593;28;20051;-65
2022/07/21 11:24:49;;;;;;;16.98;11.70;;;27.20;99.90;;;;;;5055762;28;20878;-64
2022/07/21 11:27:19;;;;;;;13.38;11.90;;;27.20;99.90;;;;;;5074230;28;20051;-64
2022/07/21 11:29:52;;;;;;;12.75;11.30;;;27.30;97.70;;;;;;5092630;28;20046;-65
2022/07/21 11:32:19;;;;;;;19.52;13.48;;;27.20;98.10;;;;;;5094660;28;20047;-64
2022/07/21 11:34:56;;;;;;;16.17;12.63;;;27.10;99.90;;;;;;5075283;28;20052;-65
2022/07/21 11:37:28;;;;;;;;;;;27.00;99.90;;;;;;5094546;28;20050;-63
2022/07/21 11:40:06;;;;;;;13.40;10.40;;;26.80;98.60;;;;;;5094493;28;20018;-64
2022/07/21 11:42:34;;;;;;;12.52;10.48;;;26.70;99.90;;;;;;5094801;28;20068;-65
2022/07/21 11:45:01;;;;;;;18.73;11.85;;;26.50;99.90;;;;;;5094010;28;20947;-65
2022/07/21 11:47:28;;;;;;;14.27;11.38;;;26.40;99.90;;;;;;5094113;28;20039;-65
2022/07/21 11:49:58;;;;;;;16.52;11.15;;;26.30;99.90;;;;;;5094323;28;20069;-63
2022/07/21 11:52:30;;;;;;;14.68;10.40;;;26.20;99.90;;;;;;5094376;28;20043;-63
2022/07/21 11:54:59;;;;;;;10.10;8.98;;;26.10;99.90;;;;;;5092438;28;20769;-67
2022/07/21 11:57:26;;;;;;;10.70;8.57;;;26.10;99.90;;;;;;5093536;28;20077;-66
2022/07/21 11:59:56;;;;;;;13.25;9.05;;;26.10;99.90;;;;;;5083620;28;20066;-67
2022/07/21 12:02:25;;;;;;;11.82;9.65;;;26.10;99.90;;;;;;5081672;28;20047;-66
2022/07/21 12:05:01;;;;;;;10.23;9.23;;;26.10;99.90;;;;;;5074823;28;20654;-68
2022/07/21 12:07:36;;;;;;;12.80;9.50;;;26.20;99.90;;;;;;5078327;28;20044;-67
2022/07/21 12:10:24;;;;;;;14.15;9.65;;;26.30;99.90;;;;;;5076857;28;20035;-63
2022/07/21 12:12:57;;;;;;;15.50;11.15;;;26.30;99.90;;;;;;5079661;28;20187;-67
2022/07/21 12:15:28;;;;;;;11.18;9.70;;;26.30;97.00;;;;;;5098483;28;20039;-66
2022/07/21 12:17:56;;;;;;;12.20;9.20;;;26.30;98.20;;;;;;5098644;28;20055;-65
2022/07/21 12:20:31;;;;;;;11.48;9.07;;;26.40;99.90;;;;;;5098041;28;20048;-67
2022/07/21 12:23:01;;;;;;;11.32;9.57;;;26.40;99.90;;;;;;5097890;28;20031;-68
2022/07/21 12:25:37;;;;;;;14.02;10.02;;;26.60;99.90;;;;;;5097123;28;20040;-68
2022/07/21 12:28:05;;;;;;;;;;;26.90;99.90;;;;;;5080148;28;20052;-67
2022/07/21 12:30:42;;;;;;;9.30;8.15;;;27.00;99.50;;;;;;5097823;28;19930;-65
2022/07/21 12:33:11;;;;;;;10.40;9.30;;;27.20;97.70;;;;;;5098024;28;20047;-65
2022/07/21 12:35:42;;;;;;;12.77;9.25;;;27.30;96.00;;;;;;5097380;28;20045;-64
2022/07/21 12:38:11;;;;;;;11.18;7.75;;;27.20;84.50;;;;;;5098309;28;20043;-64
2022/07/21 12:40:43;;;;;;;10.77;9.15;;;27.20;81.70;;;;;;5097614;28;20695;-65
2022/07/21 12:43:31;;;;;;;13.70;8.57;;;27.20;79.30;;;;;;5092162;28;20036;-64
2022/07/21 12:46:18;;;;;;;12.25;9.00;;;27.10;81.90;;;;;;5077438;28;20040;-63